Time;durP1;ratioP1;P1;durP2;ratioP2;P2;SDS_P1;SDS_P2;PMS_P1;PMS_P2;Temp;Humidity;BMP_temperature;BMP_pressure;BME280_temperature;BME280_humidity;BME280_pressure;Samples;Min_cycle;Max_cycle;Signal;HPM_P1;HPM_P2
2022/11/24 00:01:16;;;;;;;14.18;8.80;;;;;;;5.30;100.00;99904.19;5091207;28;20024;-77
2022/11/24 00:03:51;;;;;;;17.95;10.07;;;;;;;5.31;100.00;99905.00;5091680;28;20024;-77
2022/11/24 00:06:17;;;;;;;14.95;10.35;;;;;;;5.28;100.00;99895.72;5091032;28;20062;-77
2022/11/24 00:08:44;;;;;;;13.60;7.15;;;;;;;5.42;100.00;99899.78;5085814;28;20415;-77
2022/11/24 00:11:13;;;;;;;14.25;8.57;;;;;;;5.58;100.00;99896.78;5090454;28;20086;-78
2022/11/24 00:13:39;;;;;;;9.65;5.93;;;;;;;5.70;100.00;99885.41;5087157;28;20023;-77
2022/11/24 00:16:25;;;;;;;12.02;5.18;;;;;;;5.74;100.00;99885.97;5097266;28;20024;-77
2022/11/24 00:18:52;;;;;;;8.95;5.75;;;;;;;5.75;100.00;99890.19;5087114;28;20028;-77
2022/11/24 00:21:19;;;;;;;9.45;5.47;;;;;;;5.71;100.00;99891.38;5089207;28;20450;-78
2022/11/24 00:23:46;;;;;;;9.52;5.63;;;;;;;5.78;100.00;99890.75;5083027;28;20130;-78
2022/11/24 00:26:14;;;;;;;9.18;5.70;;;;;;;5.85;100.00;99893.66;5083194;28;20029;-78
2022/11/24 00:28:41;;;;;;;9.98;6.53;;;;;;;5.72;100.00;99903.34;5086744;28;20113;-78
2022/11/24 00:31:17;;;;;;;10.77;6.75;;;;;;;5.45;100.00;99894.38;5091748;28;20458;-78
2022/11/24 00:33:42;;;;;;;10.93;7.35;;;;;;;5.31;100.00;99897.25;5079669;28;20036;-77
2022/11/24 00:36:08;;;;;;;13.00;7.32;;;;;;;5.21;100.00;99906.69;5087420;28;20073;-78
2022/11/24 00:38:33;;;;;;;12.50;8.07;;;;;;;5.13;100.00;99897.00;5083394;28;20032;-78
2022/11/24 00:40:59;;;;;;;14.23;8.35;;;;;;;5.05;100.00;99908.88;5085287;28;20031;-78
2022/11/24 00:43:24;;;;;;;16.40;9.70;;;;;;;4.97;100.00;99902.56;5093152;28;20028;-78
2022/11/24 00:45:49;;;;;;;15.32;10.13;;;;;;;4.81;100.00;99907.28;5088933;28;20039;-77
2022/11/24 00:48:15;;;;;;;12.70;8.15;;;;;;;5.02;100.00;99909.94;5088469;28;20679;-78
2022/11/24 00:50:40;;;;;;;14.07;5.93;;;;;;;5.31;100.00;99915.31;5088575;28;20063;-76
2022/11/24 00:53:06;;;;;;;9.50;4.97;;;;;;;5.48;100.00;99914.78;5090780;28;20062;-78
2022/11/24 00:55:31;;;;;;;7.85;4.90;;;;;;;5.57;100.00;99924.38;5089420;28;20040;-76
2022/11/24 00:57:57;;;;;;;8.82;4.90;;;;;;;5.66;100.00;99926.22;5089907;28;20057;-77
2022/11/24 01:00:22;;;;;;;11.02;4.90;;;;;;;5.68;100.00;99944.97;5091572;28;20451;-77
2022/11/24 01:02:48;;;;;;;8.10;5.22;;;;;;;5.75;100.00;99939.28;5092722;28;20020;-76
2022/11/24 01:05:13;;;;;;;10.73;5.43;;;;;;;5.81;100.00;99946.56;5090455;28;20040;-78
2022/11/24 01:07:38;;;;;;;6.70;4.32;;;;;;;5.76;100.00;99941.75;5093661;28;20028;-77
2022/11/24 01:10:04;;;;;;;6.15;3.58;;;;;;;5.76;100.00;99943.53;5092436;28;20047;-77
2022/11/24 01:12:31;;;;;;;8.43;3.97;;;;;;;5.74;100.00;99948.00;5088344;28;20055;-77
2022/11/24 01:14:57;;;;;;;11.77;3.92;;;;;;;5.67;100.00;99948.50;5083878;28;20020;-77
2022/11/24 01:17:22;;;;;;;6.97;4.05;;;;;;;5.55;100.00;99946.94;5090976;28;20503;-77
2022/11/24 01:19:48;;;;;;;7.55;3.70;;;;;;;5.47;100.00;99954.50;5092021;28;20032;-77
2022/11/24 01:22:14;;;;;;;9.82;4.03;;;;;;;5.41;100.00;99962.72;5097663;28;20032;-78
2022/11/24 01:24:40;;;;;;;9.10;4.82;;;;;;;5.42;100.00;99954.03;5090140;28;20143;-77
2022/11/24 01:27:06;;;;;;;8.60;4.75;;;;;;;5.47;100.00;99958.84;5088459;28;20023;-77
2022/11/24 01:29:31;;;;;;;8.85;4.93;;;;;;;5.51;100.00;99963.63;5095140;28;20084;-77
2022/11/24 01:31:57;;;;;;;11.20;3.72;;;;;;;5.51;100.00;99966.22;5092066;28;20069;-77
2022/11/24 01:34:22;;;;;;;12.27;4.65;;;;;;;5.53;100.00;99972.09;5092637;28;20036;-77
2022/11/24 01:36:47;;;;;;;8.02;4.68;;;;;;;5.51;100.00;99976.56;5090911;28;20035;-76
2022/11/24 01:39:13;;;;;;;8.63;4.60;;;;;;;5.50;100.00;99974.91;5087421;28;20823;-76
2022/11/24 01:41:39;;;;;;;8.27;4.20;;;;;;;5.51;100.00;99979.13;5094909;28;20024;-77
2022/11/24 01:44:22;;;;;;;6.03;2.93;;;;;;;5.47;100.00;99982.91;5095323;28;20518;-77
2022/11/24 01:46:54;;;;;;;7.93;3.20;;;;;;;5.49;100.00;99985.38;5085153;28;20024;-77
2022/11/24 01:49:39;;;;;;;10.95;4.32;;;;;;;5.44;100.00;99988.31;5090047;28;20032;-76
2022/11/24 01:52:28;;;;;;;7.00;3.38;;;;;;;5.39;100.00;99992.22;5093989;28;20075;-77
2022/11/24 01:54:57;;;;;;;7.32;3.60;;;;;;;5.34;100.00;99988.22;5090755;28;20036;-78
2022/11/24 01:57:28;;;;;;;7.68;3.92;;;;;;;5.33;100.00;99993.53;5087343;28;20067;-76
2022/11/24 01:59:58;;;;;;;7.22;4.15;;;;;;;5.37;100.00;99986.34;5092720;28;20054;-77
2022/11/24 02:02:27;;;;;;;8.80;3.97;;;;;;;5.37;100.00;99984.59;5090742;28;20501;-77
2022/11/24 02:04:53;;;;;;;7.68;3.60;;;;;;;5.38;100.00;99991.41;5090674;28;20104;-77
2022/11/24 02:07:19;;;;;;;7.57;4.18;;;;;;;5.39;100.00;99989.63;5087928;28;20040;-77
2022/11/24 02:09:50;;;;;;;7.75;3.70;;;;;;;5.41;100.00;99992.91;5088794;28;20544;-75
2022/11/24 02:12:15;;;;;;;9.27;4.32;;;;;;;5.43;100.00;99991.03;5084674;28;20043;-78
2022/11/24 02:14:42;;;;;;;11.18;4.72;;;;;;;5.40;100.00;99996.44;5089997;28;20020;-76
2022/11/24 02:17:08;;;;;;;7.57;3.90;;;;;;;5.41;100.00;99996.31;5098057;28;20028;-76
2022/11/24 02:19:40;;;;;;;8.57;4.30;;;;;;;5.38;100.00;99993.97;5094707;28;20050;-77
2022/11/24 02:22:37;;;;;;;7.82;3.83;;;;;;;5.35;100.00;99989.06;5098612;28;20584;-77
2022/11/24 02:25:20;;;;;;;10.13;4.07;;;;;;;5.28;100.00;100001.63;5084833;28;20044;-77
2022/11/24 02:27:45;;;;;;;8.88;4.05;;;;;;;5.25;100.00;100009.63;5086411;28;20032;-76
2022/11/24 02:30:11;;;;;;;8.80;4.13;;;;;;;5.24;100.00;100017.50;5092604;28;20130;-78
2022/11/24 02:32:40;;;;;;;9.40;4.88;;;;;;;5.25;100.00;100008.81;5090009;28;20031;-77
2022/11/24 02:35:07;;;;;;;10.15;4.97;;;;;;;5.28;100.00;100011.16;5095116;28;20069;-77
2022/11/24 02:37:33;;;;;;;9.07;4.43;;;;;;;5.24;100.00;100013.16;5088239;28;20059;-76
2022/11/24 02:39:58;;;;;;;10.75;4.65;;;;;;;5.22;100.00;100011.63;5085138;28;20062;-76
2022/11/24 02:42:26;;;;;;;10.63;4.10;;;;;;;5.25;100.00;100019.97;5089283;28;20118;-79
2022/11/24 02:44:56;;;;;;;8.75;4.10;;;;;;;5.25;100.00;100016.56;5087982;28;20467;-77
2022/11/24 02:47:21;;;;;;;11.45;4.43;;;;;;;5.25;100.00;100013.97;5090640;28;20040;-77
2022/11/24 02:49:47;;;;;;;9.93;3.92;;;;;;;5.24;100.00;100017.50;5090655;28;20470;-76
2022/11/24 02:52:12;;;;;;;12.07;4.50;;;;;;;5.21;100.00;100015.97;5086141;28;20423;-78
2022/11/24 02:54:38;;;;;;;7.47;3.70;;;;;;;5.20;100.00;100006.59;5089860;28;20035;-76
2022/11/24 02:57:04;;;;;;;6.55;3.33;;;;;;;5.25;100.00;100019.13;5093885;27;20442;-77
2022/11/24 02:59:29;;;;;;;5.65;3.53;;;;;;;5.29;100.00;100015.38;5088519;28;20032;-78
2022/11/24 03:01:55;;;;;;;9.07;3.90;;;;;;;5.33;100.00;100019.34;5089043;28;20035;-77
2022/11/24 03:04:20;;;;;;;7.63;4.38;;;;;;;5.38;100.00;100024.16;5090520;28;20123;-77
2022/11/24 03:06:45;;;;;;;7.93;4.90;;;;;;;5.37;100.00;100023.34;5091229;28;20023;-76
2022/11/24 03:09:11;;;;;;;9.20;5.18;;;;;;;5.32;100.00;100028.88;5088600;28;20028;-78
2022/11/24 03:11:37;;;;;;;9.98;4.28;;;;;;;5.31;100.00;100034.16;5091531;28;20046;-78
2022/11/24 03:14:03;;;;;;;6.25;3.88;;;;;;;5.36;100.00;100044.94;5088917;28;20039;-76
2022/11/24 03:16:29;;;;;;;8.30;3.67;;;;;;;5.44;100.00;100055.50;5089375;28;20028;-76
2022/11/24 03:18:54;;;;;;;6.93;3.72;;;;;;;5.48;100.00;100059.47;5095124;28;20042;-77
2022/11/24 03:21:20;;;;;;;5.80;3.15;;;;;;;5.46;100.00;100057.97;5088831;28;20467;-76
2022/11/24 03:23:46;;;;;;;6.45;3.25;;;;;;;5.43;100.00;100063.38;5088624;28;20127;-77
2022/11/24 03:26:14;;;;;;;5.90;2.97;;;;;;;5.32;100.00;100071.97;5087747;28;20364;-78
2022/11/24 03:28:40;;;;;;;6.72;3.00;;;;;;;5.24;100.00;100075.13;5089916;28;20117;-77
2022/11/24 03:31:06;;;;;;;8.48;2.83;;;;;;;5.16;100.00;100066.38;5086925;28;20036;-78
2022/11/24 03:33:32;;;;;;;6.03;3.00;;;;;;;5.11;100.00;100073.66;5088937;28;20028;-76
2022/11/24 03:35:58;;;;;;;4.85;2.65;;;;;;;5.06;100.00;100065.44;5094921;28;20020;-76
2022/11/24 03:38:23;;;;;;;6.25;2.85;;;;;;;5.07;100.00;100062.75;5086966;28;20056;-78
2022/11/24 03:40:49;;;;;;;7.45;2.67;;;;;;;5.09;100.00;100062.63;5090278;28;20450;-76
2022/11/24 03:43:14;;;;;;;5.53;3.75;;;;;;;5.15;100.00;100070.72;5089964;28;20031;-77
2022/11/24 03:45:40;;;;;;;6.88;2.95;;;;;;;5.17;100.00;100076.59;5086691;28;20509;-77
2022/11/24 03:48:06;;;;;;;6.43;3.22;;;;;;;5.19;100.00;100082.44;5087453;28;20041;-77
2022/11/24 03:50:31;;;;;;;5.78;3.50;;;;;;;5.17;100.00;100081.75;5089522;28;20039;-78
2022/11/24 03:52:57;;;;;;;5.53;3.03;;;;;;;5.15;100.00;100082.81;5093181;28;20536;-76
2022/11/24 03:55:22;;;;;;;4.80;2.63;;;;;;;5.12;100.00;100075.28;5086759;28;20386;-77
2022/11/24 03:57:48;;;;;;;7.57;3.28;;;;;;;5.06;100.00;100086.09;5090096;28;20038;-76
2022/11/24 04:00:14;;;;;;;5.68;2.83;;;;;;;4.98;100.00;100078.94;5089532;28;20038;-76
2022/11/24 04:02:40;;;;;;;8.65;2.55;;;;;;;4.92;100.00;100087.97;5088397;28;20371;-77
2022/11/24 04:05:05;;;;;;;7.03;2.70;;;;;;;4.86;100.00;100083.28;5087690;28;20119;-76
2022/11/24 04:07:31;;;;;;;5.00;2.55;;;;;;;4.87;100.00;100092.66;5087383;28;20043;-76
2022/11/24 04:09:57;;;;;;;6.70;2.85;;;;;;;4.89;100.00;100101.13;5090860;28;20039;-79
2022/11/24 04:15:06;;;;;;;6.07;3.40;;;;;;;4.90;100.00;100114.84;5089064;28;20062;-76
2022/11/24 04:17:31;;;;;;;4.72;2.33;;;;;;;4.91;100.00;100114.72;5087901;28;20064;-76
2022/11/24 04:19:57;;;;;;;7.78;3.13;;;;;;;4.88;100.00;100117.53;5090262;28;20050;-77
2022/11/24 04:22:22;;;;;;;7.18;2.92;;;;;;;4.90;100.00;100120.81;5085238;28;20047;-75
2022/11/24 04:24:48;;;;;;;6.28;2.50;;;;;;;4.88;100.00;100120.13;5087491;28;20031;-77
2022/11/24 04:27:13;;;;;;;7.00;2.88;;;;;;;4.82;100.00;100115.41;5089907;28;20059;-75
2022/11/24 04:29:39;;;;;;;6.10;2.70;;;;;;;4.83;100.00;100122.22;5086940;28;20135;-76
2022/11/24 04:32:04;;;;;;;4.85;2.88;;;;;;;4.78;100.00;100119.16;5088839;28;20032;-76
2022/11/24 04:34:30;;;;;;;6.40;2.95;;;;;;;4.75;100.00;100116.81;5089345;28;20032;-77
2022/11/24 04:36:55;;;;;;;8.00;2.55;;;;;;;4.77;100.00;100114.94;5088131;28;20515;-77
2022/11/24 04:39:21;;;;;;;7.88;2.65;;;;;;;4.80;100.00;100125.03;5082119;28;20027;-76
2022/11/24 04:41:47;;;;;;;4.75;2.30;;;;;;;4.83;100.00;100127.38;5096410;28;20079;-76
2022/11/24 04:44:12;;;;;;;5.05;2.13;;;;;;;4.83;100.00;100135.13;5093721;28;20513;-76
2022/11/24 04:46:37;;;;;;;7.28;2.35;;;;;;;4.88;100.00;100138.19;5088514;28;20058;-76
2022/11/24 04:49:04;;;;;;;7.15;2.63;;;;;;;4.88;100.00;100143.34;5087432;28;20471;-77
2022/11/24 04:51:29;;;;;;;4.60;2.42;;;;;;;4.83;100.00;100140.28;5089560;28;20119;-76
2022/11/24 04:53:55;;;;;;;5.30;3.17;;;;;;;4.80;100.00;100137.13;5084423;28;20106;-76
2022/11/24 04:56:20;;;;;;;4.72;2.60;;;;;;;4.77;100.00;100142.50;5085359;28;20024;-77
2022/11/24 04:58:49;;;;;;;5.80;2.55;;;;;;;4.83;100.00;100148.03;5087588;28;20024;-78
2022/11/24 05:01:14;;;;;;;4.78;2.33;;;;;;;4.84;100.00;100143.69;5082057;28;20062;-76
2022/11/24 05:03:40;;;;;;;4.80;2.67;;;;;;;4.86;100.00;100157.31;5088246;28;20047;-77
2022/11/24 05:06:07;;;;;;;6.80;2.53;;;;;;;4.84;100.00;100159.19;5086878;28;20383;-76
2022/11/24 05:08:34;;;;;;;4.10;2.08;;;;;;;4.81;100.00;100155.06;5087301;28;20039;-76
2022/11/24 05:11:04;;;;;;;8.13;2.13;;;;;;;4.79;100.00;100154.38;5084296;28;20469;-76
2022/11/24 05:13:29;;;;;;;3.63;1.98;;;;;;;4.73;100.00;100170.31;5086971;28;20535;-76
2022/11/24 05:15:55;;;;;;;5.65;2.33;;;;;;;4.72;100.00;100166.13;5087622;28;20166;-76
2022/11/24 05:18:21;;;;;;;4.35;2.03;;;;;;;4.69;100.00;100175.84;5086300;28;20382;-77
2022/11/24 05:20:47;;;;;;;4.25;2.53;;;;;;;4.64;100.00;100173.59;5089028;28;20043;-76
2022/11/24 05:23:13;;;;;;;4.50;2.38;;;;;;;4.63;100.00;100184.84;5085314;28;20044;-77
2022/11/24 05:25:38;;;;;;;4.03;2.05;;;;;;;4.57;100.00;100182.72;5085317;28;20063;-76
2022/11/24 05:28:08;;;;;;;6.80;2.45;;;;;;;4.55;100.00;100185.41;5087673;28;20131;-76
2022/11/24 05:30:37;;;;;;;4.50;2.40;;;;;;;4.56;100.00;100186.25;5087478;28;20028;-76
2022/11/24 05:33:07;;;;;;;6.25;2.38;;;;;;;4.56;100.00;100186.25;5088791;28;20072;-76
2022/11/24 05:35:35;;;;;;;5.00;2.10;;;;;;;4.54;100.00;100188.09;5085197;28;20556;-76
2022/11/24 05:38:03;;;;;;;5.82;2.97;;;;;;;4.53;100.00;100183.88;5098317;28;20462;-76
2022/11/24 05:40:29;;;;;;;5.65;2.45;;;;;;;4.52;100.00;100180.47;5086528;28;20044;-76
2022/11/24 05:42:54;;;;;;;2.92;1.60;;;;;;;4.53;100.00;100201.94;5092719;28;20024;-76
2022/11/24 05:45:21;;;;;;;5.28;2.53;;;;;;;4.57;100.00;100195.63;5091300;28;20424;-77
2022/11/24 05:47:48;;;;;;;3.95;2.17;;;;;;;4.56;100.00;100205.13;5090671;28;20023;-77
2022/11/24 05:50:15;;;;;;;3.42;2.00;;;;;;;4.53;100.00;100204.53;5091764;28;20039;-75
2022/11/24 05:52:41;;;;;;;4.43;2.60;;;;;;;4.48;100.00;100199.69;5089897;28;20032;-76
2022/11/24 05:55:08;;;;;;;4.28;2.60;;;;;;;4.42;100.00;100201.91;5091415;28;20502;-76
2022/11/24 05:57:34;;;;;;;7.30;2.55;;;;;;;4.38;100.00;100197.88;5088807;28;20043;-76
2022/11/24 06:00:00;;;;;;;3.83;2.00;;;;;;;4.34;100.00;100203.28;5091293;28;20108;-76
2022/11/24 06:02:25;;;;;;;3.85;1.95;;;;;;;4.34;100.00;100211.00;5088002;28;20036;-76
2022/11/24 06:04:51;;;;;;;4.10;2.10;;;;;;;4.37;100.00;100209.97;5092139;28;20088;-76
2022/11/24 06:07:17;;;;;;;5.43;2.15;;;;;;;4.41;100.00;100213.97;5087844;28;20036;-76
2022/11/24 06:09:42;;;;;;;3.70;1.95;;;;;;;4.43;100.00;100224.19;5090665;28;20043;-76
2022/11/24 06:12:09;;;;;;;4.30;1.65;;;;;;;4.42;100.00;100228.50;5095874;28;20051;-77
2022/11/24 06:14:36;;;;;;;6.72;2.30;;;;;;;4.44;100.00;100223.25;5089409;28;20012;-76
2022/11/24 06:17:02;;;;;;;5.95;2.40;;;;;;;4.42;100.00;100231.09;5088269;28;20070;-76
2022/11/24 06:19:27;;;;;;;6.18;2.33;;;;;;;4.39;100.00;100227.91;5089719;28;20082;-77
2022/11/24 06:21:53;;;;;;;7.03;3.10;;;;;;;4.41;100.00;100238.94;5091941;28;20456;-75
2022/11/24 06:24:19;;;;;;;5.90;2.72;;;;;;;4.38;100.00;100241.75;5083205;28;20051;-76
2022/11/24 06:26:44;;;;;;;6.68;2.30;;;;;;;4.42;100.00;100245.75;5085267;28;20050;-77
2022/11/24 06:29:10;;;;;;;7.93;2.75;;;;;;;4.46;100.00;100244.59;5095419;28;20379;-77
2022/11/24 06:31:35;;;;;;;6.55;2.60;;;;;;;4.44;100.00;100254.19;5081459;28;20141;-76
2022/11/24 06:34:01;;;;;;;5.05;2.08;;;;;;;4.41;100.00;100259.59;5089711;28;20020;-77
2022/11/24 06:36:26;;;;;;;4.72;2.42;;;;;;;4.40;100.00;100260.50;5090477;28;20425;-77
2022/11/24 06:38:52;;;;;;;7.72;3.00;;;;;;;4.39;100.00;100269.19;5090078;28;20036;-77
2022/11/24 06:41:18;;;;;;;6.38;2.17;;;;;;;4.38;100.00;100275.28;5094366;28;20032;-77
2022/11/24 06:43:44;;;;;;;5.25;2.53;;;;;;;4.38;100.00;100275.28;5097009;28;20020;-78
2022/11/24 06:46:11;;;;;;;8.93;2.55;;;;;;;4.38;100.00;100281.25;5089810;28;20465;-78
2022/11/24 06:48:37;;;;;;;8.60;2.88;;;;;;;4.36;100.00;100284.88;5083261;28;20039;-77
2022/11/24 06:51:05;;;;;;;5.30;2.17;;;;;;;4.36;100.00;100284.88;5080546;28;20028;-80
2022/11/24 06:53:36;;;;;;;5.55;3.40;;;;;;;4.38;100.00;100290.75;5080790;28;20071;-78
2022/11/24 06:56:04;;;;;;;4.13;2.20;;;;;;;4.43;100.00;100283.50;5082505;28;20245;-78
2022/11/24 06:58:30;;;;;;;4.00;2.42;;;;;;;4.43;100.00;100291.25;5087016;28;20402;-78
2022/11/24 07:00:55;;;;;;;5.18;2.95;;;;;;;4.44;100.00;100303.22;5091365;28;20028;-76
2022/11/24 07:03:21;;;;;;;3.97;2.53;;;;;;;4.47;100.00;100297.84;5090715;28;20042;-77
2022/11/24 07:05:47;;;;;;;3.67;2.17;;;;;;;4.50;100.00;100308.78;5096028;28;20046;-77
2022/11/24 07:08:13;;;;;;;5.13;2.70;;;;;;;4.53;100.00;100308.56;5089270;28;20055;-77
2022/11/24 07:10:38;;;;;;;5.85;2.85;;;;;;;4.58;100.00;100315.97;5091434;28;20027;-77
2022/11/24 07:13:08;;;;;;;4.10;2.55;;;;;;;4.55;100.00;100324.75;5089870;28;20076;-76
2022/11/24 07:15:33;;;;;;;6.05;2.85;;;;;;;4.55;100.00;100324.75;5089297;28;20036;-76
2022/11/24 07:17:59;;;;;;;7.30;2.75;;;;;;;4.56;100.00;100325.56;5089055;28;20043;-77
2022/11/24 07:20:25;;;;;;;3.67;1.98;;;;;;;4.52;100.00;100329.31;5090849;28;20383;-76
2022/11/24 07:22:55;;;;;;;7.25;3.28;;;;;;;4.52;100.00;100329.31;5089387;28;20086;-75
2022/11/24 07:25:20;;;;;;;8.18;2.83;;;;;;;4.53;100.00;100336.09;5086641;28;20431;-77
2022/11/24 07:27:46;;;;;;;5.28;2.58;;;;;;;4.57;100.00;100342.69;5089706;28;20043;-76
2022/11/24 07:30:11;;;;;;;4.78;2.38;;;;;;;4.65;100.00;100350.72;5093031;28;20035;-77
2022/11/24 07:32:37;;;;;;;4.30;1.83;;;;;;;4.73;100.00;100345.81;5086795;28;20065;-76
2022/11/24 07:35:02;;;;;;;9.40;2.70;;;;;;;4.79;100.00;100349.72;5086888;28;20522;-77
2022/11/24 07:37:28;;;;;;;5.63;2.47;;;;;;;4.85;100.00;100344.94;5091915;28;20496;-76
2022/11/24 07:39:53;;;;;;;3.08;1.60;;;;;;;4.89;100.00;100346.38;5088577;28;20034;-77
2022/11/24 07:42:19;;;;;;;5.03;1.85;;;;;;;4.93;100.00;100352.13;5089318;28;20044;-77
2022/11/24 07:44:44;;;;;;;6.25;2.50;;;;;;;4.95;100.00;100353.66;5092338;28;20079;-76
2022/11/24 07:47:10;;;;;;;4.95;2.55;;;;;;;5.00;100.00;100366.25;5086994;28;20055;-77
2022/11/24 07:49:35;;;;;;;5.78;2.50;;;;;;;5.06;100.00;100359.81;5079412;28;20040;-74
2022/11/24 07:52:00;;;;;;;4.82;2.30;;;;;;;5.14;100.00;100366.06;5081475;28;20028;-75
2022/11/24 07:54:26;;;;;;;4.97;3.13;;;;;;;5.22;100.00;100368.06;5080888;28;20097;-76
2022/11/24 07:56:51;;;;;;;7.20;3.38;;;;;;;5.29;100.00;100372.69;5080194;28;20943;-77
2022/11/24 07:59:17;;;;;;;4.28;2.45;;;;;;;5.28;100.00;100375.38;5080650;28;20088;-74
2022/11/24 08:01:42;;;;;;;3.65;2.15;;;;;;;5.31;100.00;100372.56;5079393;28;20039;-77
2022/11/24 08:04:08;;;;;;;6.80;2.20;;;;;;;5.39;100.00;100383.16;5081816;28;20085;-76
2022/11/24 08:06:33;;;;;;;6.28;1.85;;;;;;;5.45;100.00;100387.88;5080377;28;20032;-76
2022/11/24 08:08:59;;;;;;;4.80;2.08;;;;;;;5.50;100.00;100385.78;5079761;28;20032;-76
2022/11/24 08:11:26;;;;;;;3.50;1.88;;;;;;;5.55;100.00;100383.69;5078517;28;20083;-76
2022/11/24 08:13:51;;;;;;;5.13;2.05;;;;;;;5.62;100.00;100374.53;5079247;28;20537;-76
2022/11/24 08:16:18;;;;;;;4.57;2.13;;;;;;;5.67;100.00;100372.41;5079036;28;20028;-76
2022/11/24 08:18:51;;;;;;;2.60;1.45;;;;;;;5.68;100.00;100376.63;5078473;28;20501;-75
2022/11/24 08:21:17;;;;;;;4.20;2.05;;;;;;;5.71;100.00;100377.34;5087069;28;20055;-75
2022/11/24 08:23:43;;;;;;;12.63;2.13;;;;;;;5.76;100.00;100388.97;5084859;28;20518;-76
2022/11/24 08:26:14;;;;;;;3.28;1.80;;;;;;;5.82;100.00;100392.88;5081480;28;20040;-76
2022/11/24 08:28:40;;;;;;;5.88;1.55;;;;;;;5.93;100.00;100390.34;5078186;28;20061;-76
2022/11/24 08:31:08;;;;;;;5.28;2.05;;;;;;;6.03;100.00;100404.22;5079622;28;20502;-76
2022/11/24 08:33:34;;;;;;;2.72;1.90;;;;;;;6.07;100.00;100409.97;5078597;28;20040;-75
2022/11/24 08:36:07;;;;;;;4.18;1.65;;;;;;;6.09;100.00;100398.56;5078904;28;20788;-76
2022/11/24 08:38:32;;;;;;;3.53;1.52;;;;;;;6.09;100.00;100408.09;5081451;28;20043;-76
2022/11/24 08:41:02;;;;;;;2.42;1.20;;;;;;;6.10;100.00;100408.00;5086428;28;20072;-76
2022/11/24 08:43:28;;;;;;;3.28;1.40;;;;;;;6.17;100.00;100411.72;5089956;28;20024;-74
2022/11/24 08:45:54;;;;;;;5.50;1.88;;;;;;;6.21;100.00;100415.72;5088040;28;20035;-76
2022/11/24 08:48:19;;;;;;;4.68;1.40;;;;;;;6.26;100.00;100408.44;5088444;28;20113;-76
2022/11/24 08:50:44;;;;;;;4.97;1.40;;;;;;;6.30;100.00;100411.63;5087062;28;20111;-75
2022/11/24 08:53:10;;;;;;;6.53;1.45;;;;;;;6.36;100.00;100421.50;5086384;28;20028;-76
2022/11/24 08:55:35;;;;;;;2.63;1.30;;;;;;;6.41;100.00;100419.38;5086131;28;20035;-75
2022/11/24 08:58:01;;;;;;;3.67;1.60;;;;;;;6.47;100.00;100418.91;5088334;28;20024;-76
2022/11/24 09:00:26;;;;;;;3.22;1.40;;;;;;;6.57;100.00;100424.19;5087643;28;20027;-75
2022/11/24 09:02:56;;;;;;;3.20;1.35;;;;;;;6.67;100.00;100430.25;5081138;28;20024;-76
2022/11/24 09:05:21;;;;;;;4.35;1.55;;;;;;;6.82;100.00;100433.44;5081874;28;20032;-77
2022/11/24 09:07:47;;;;;;;2.63;1.40;;;;;;;6.91;100.00;100438.72;5082812;28;20044;-77
2022/11/24 09:10:12;;;;;;;2.78;1.58;;;;;;;7.01;100.00;100438.81;5093189;28;20032;-76
2022/11/24 09:12:38;;;;;;;4.40;1.33;;;;;;;7.01;100.00;100440.56;5094398;28;20119;-76
2022/11/24 09:15:04;;;;;;;2.65;1.27;;;;;;;7.04;100.00;100432.56;5092184;28;20023;-76
2022/11/24 09:17:29;;;;;;;2.78;1.33;;;;;;;7.05;100.00;100442.78;5092511;28;20047;-76
2022/11/24 09:19:55;;;;;;;3.95;1.30;;;;;;;7.13;100.00;100442.97;5092019;28;20032;-76
2022/11/24 09:22:20;;;;;;;2.95;1.00;;;;;;;7.31;100.00;100445.88;5091270;28;20038;-75
2022/11/24 09:24:45;;;;;;;2.33;1.08;;;;;;;7.48;100.00;100439.31;5090965;28;20353;-77
2022/11/24 09:27:11;;;;;;;3.10;1.20;;;;;;;7.57;100.00;100441.13;5091682;28;20075;-77
2022/11/24 09:29:36;;;;;;;3.78;1.40;;;;;;;7.56;100.00;100450.69;5094631;28;20015;-76
2022/11/24 09:32:02;;;;;;;4.43;1.10;;;;;;;7.56;100.00;100449.91;5097457;28;20378;-76
2022/11/24 09:34:27;;;;;;;5.18;1.73;;;;;;;7.62;100.00;100447.59;5090564;28;20081;-76
2022/11/24 09:36:53;;;;;;;3.97;1.55;;;;;;;7.74;100.00;100452.72;5092757;28;20118;-75
2022/11/24 09:39:18;;;;;;;3.22;1.35;;;;;;;7.80;100.00;100444.44;5089847;28;20028;-76
2022/11/24 09:42:30;;;;;;;3.70;0.98;;;;;;;7.90;99.61;100458.31;5091392;28;20028;-76
2022/11/24 09:45:01;;;;;;;1.70;0.80;;;;;;;7.96;100.00;100448.25;5090053;28;20039;-74
2022/11/24 09:47:26;;;;;;;2.65;0.90;;;;;;;8.08;100.00;100453.31;5093561;28;20112;-76
2022/11/24 09:49:57;;;;;;;2.08;1.13;;;;;;;8.12;99.44;100452.13;5091526;28;20055;-77
2022/11/24 09:52:49;;;;;;;4.35;0.80;;;;;;;8.16;97.33;100459.53;5091803;28;20031;-76
2022/11/24 09:55:21;;;;;;;2.80;0.70;;;;;;;8.13;98.87;100459.78;5083916;28;20048;-77
2022/11/24 09:57:53;;;;;;;3.35;1.27;;;;;;;8.25;100.00;100463.94;5091601;28;20024;-76
2022/11/24 10:00:18;;;;;;;3.30;1.48;;;;;;;8.35;100.00;100460.59;5089432;28;20039;-76
2022/11/24 10:02:47;;;;;;;3.92;1.63;;;;;;;8.39;97.91;100462.81;5090485;28;20062;-77
2022/11/24 10:05:13;;;;;;;4.20;1.10;;;;;;;8.52;98.15;100462.56;5089788;28;20501;-77
2022/11/24 10:07:59;;;;;;;3.30;0.80;;;;;;;8.54;96.48;100460.66;5091985;28;20039;-76
2022/11/24 10:10:34;;;;;;;5.20;0.77;;;;;;;8.63;97.17;100457.28;5089195;28;20047;-77
2022/11/24 10:13:12;;;;;;;2.83;0.82;;;;;;;8.72;95.37;100460.88;5087214;28;20024;-76
2022/11/24 10:15:47;;;;;;;1.80;0.60;;;;;;;8.77;96.86;100459.50;5083123;28;20070;-75
2022/11/24 10:18:39;;;;;;;2.53;0.52;;;;;;;8.88;94.03;100454.22;5090550;28;20032;-77
2022/11/24 10:21:36;;;;;;;5.13;0.70;;;;;;;9.07;94.13;100445.59;5091258;28;20058;-76
2022/11/24 10:24:26;;;;;;;4.18;0.98;;;;;;;9.20;92.63;100450.56;5087145;28;20502;-77
2022/11/24 10:27:09;;;;;;;3.05;0.90;;;;;;;9.32;92.74;100444.25;5085662;28;20158;-76
2022/11/24 10:29:40;;;;;;;2.45;0.80;;;;;;;9.45;92.90;100444.78;5089460;28;20526;-76
2022/11/24 10:32:17;;;;;;;3.95;0.60;;;;;;;9.42;94.77;100445.09;5092095;28;20035;-77
2022/11/24 10:34:44;;;;;;;2.38;0.80;;;;;;;9.43;95.68;100457.13;5089493;28;20028;-77
2022/11/24 10:37:10;;;;;;;3.65;0.60;;;;;;;9.56;93.88;100446.44;5088301;28;20124;-77
2022/11/24 10:40:12;;;;;;;2.72;0.73;;;;;;;9.61;92.37;100455.47;5090453;28;20051;-77
2022/11/24 10:42:39;;;;;;;3.03;0.60;;;;;;;9.71;94.90;100452.03;5088276;28;20039;-78
2022/11/24 10:45:15;;;;;;;0.90;0.40;;;;;;;9.79;91.70;100454.75;5088527;28;20024;-77
2022/11/24 10:47:41;;;;;;;1.75;0.60;;;;;;;9.95;94.09;100453.19;5089033;28;20031;-77
2022/11/24 10:50:18;;;;;;;5.43;1.52;;;;;;;10.02;90.72;100453.47;5091155;28;20494;-76
2022/11/24 10:52:50;;;;;;;2.30;0.95;;;;;;;10.12;92.47;100451.66;5086087;28;20042;-75
2022/11/24 10:55:15;;;;;;;2.95;0.68;;;;;;;10.16;93.17;100466.03;5085151;28;20070;-76
2022/11/24 10:57:41;;;;;;;1.80;1.02;;;;;;;10.18;93.08;100461.50;5092650;28;20059;-76
2022/11/24 11:00:19;;;;;;;1.75;0.70;;;;;;;10.17;90.91;100459.88;5088974;28;20063;-76
2022/11/24 11:02:47;;;;;;;2.47;0.70;;;;;;;10.21;91.35;100469.06;5088934;28;20024;-77
2022/11/24 11:05:31;;;;;;;1.48;0.88;;;;;;;10.26;89.33;100466.03;5087275;28;20573;-76
2022/11/24 11:08:28;;;;;;;2.17;0.60;;;;;;;10.41;88.34;100463.78;5090895;28;20036;-75
2022/11/24 11:11:16;;;;;;;3.25;0.60;;;;;;;10.40;89.43;100467.38;5102628;28;20127;-76
2022/11/24 11:13:52;;;;;;;1.27;0.65;;;;;;;10.42;90.77;100465.41;5095218;28;20054;-75
2022/11/24 11:16:25;;;;;;;;;;;;;;;10.41;86.63;100468.97;5087486;28;20435;-76
2022/11/24 11:18:51;;;;;;;1.40;0.63;;;;;;;10.40;91.69;100472.56;5093895;28;19912;-75
2022/11/24 11:21:36;;;;;;;2.80;0.77;;;;;;;10.56;88.78;100470.97;5088064;28;20039;-75
2022/11/24 11:24:13;;;;;;;4.53;0.50;;;;;;;10.54;90.97;100472.09;5089751;28;20161;-75
2022/11/24 11:26:40;;;;;;;2.67;0.60;;;;;;;10.40;92.37;100462.94;5089448;28;20431;-75
2022/11/24 11:29:05;;;;;;;2.58;0.63;;;;;;;10.33;93.52;100463.69;5095244;28;20039;-76
2022/11/24 11:31:32;;;;;;;4.68;0.90;;;;;;;10.56;91.99;100459.75;5086401;28;20545;-75
2022/11/24 11:34:12;;;;;;;4.95;1.83;;;;;;;10.53;91.90;100454.81;5090709;28;20036;-76